.
WxDataArchive / Data Records for 2009-12-20
2009-12-19 December 2009 2009-12-21

Data Records for Sunday, 20 December 2009

Time	Temp	Chill	HIndex	Humid	Dewpt	 Wind 	HiWind	WindDir	Rain 	Barom 
-----	----	-----	------	-----	-----	------	------	-------	-----	----- 
00:00	27.9	27.9	27.9	92	25.9	0	0	---	0.00	29.996 
00:05	27.8	27.8	27.8	92	25.8	0	0	---	0.00	29.996 
00:10	27.8	27.8	27.8	92	25.8	0	0	---	0.00	29.996 
00:15	27.9	27.9	27.9	92	25.9	0	0	---	0.00	29.997 
00:20	27.8	27.8	27.8	92	25.8	0	0	---	0.00	29.997 
00:25	27.8	27.8	27.8	92	25.8	0	0	---	0.00	29.997 
00:30	27.8	27.8	27.8	92	25.8	0	1	45	0.00	29.997 
00:35	27.8	27.8	27.8	92	25.8	0	1	45	0.00	29.997 
00:40	27.6	27.6	27.6	92	25.6	0	0	---	0.00	29.997 
00:45	27.6	27.6	27.6	92	25.6	0	2	22	0.00	29.997 
00:50	27.6	27.6	27.6	92	25.6	0	0	---	0.00	29.997 
00:55	27.5	27.5	27.5	92	25.5	0	0	---	0.00	29.997 
01:00	27.5	27.5	27.5	92	25.5	0	0	---	0.00	29.999 
01:05	27.5	27.5	27.5	92	25.5	0	0	---	0.00	29.999 
01:10	27.5	27.5	27.5	92	25.5	0	0	---	0.00	29.999 
01:15	27.5	27.5	27.5	92	25.5	0	0	---	0.00	30.005 
01:20	27.3	27.3	27.3	92	25.3	0	0	---	0.00	30.005 
01:25	27.3	27.3	27.3	92	25.3	0	0	---	0.00	30.005 
01:30	27.3	27.3	27.3	92	25.3	0	0	---	0.00	30.010 
01:35	27.3	27.3	27.3	92	25.3	0	0	---	0.00	30.010 
01:40	27.3	27.3	27.3	92	25.3	0	0	---	0.00	30.010 
01:45	27.3	27.3	27.3	92	25.3	0	0	---	0.00	30.008 
01:50	27.3	27.3	27.3	92	25.3	0	0	---	0.00	30.008 
01:55	27.3	27.3	27.3	92	25.3	0	0	---	0.00	30.008 
02:00	27.3	27.3	27.3	92	25.3	0	0	---	0.00	30.014 
02:05	27.3	27.3	27.3	92	25.3	0	0	---	0.00	30.014 
02:10	27.3	27.3	27.3	92	25.3	0	0	---	0.00	30.014 
02:15	27.3	27.3	27.3	92	25.3	0	0	---	0.00	30.019 
02:20	27.3	27.3	27.3	92	25.3	0	0	---	0.00	30.019 
02:25	27.3	27.3	27.3	92	25.3	0	0	---	0.00	30.019 
02:30	27.5	27.5	27.5	92	25.5	0	0	---	0.00	30.024 
02:35	27.5	27.5	27.5	92	25.5	0	0	---	0.00	30.024 
02:40	27.5	27.5	27.5	92	25.5	0	0	---	0.00	30.024 
02:45	27.5	27.5	27.5	92	25.5	0	0	---	0.00	30.026 
02:50	27.5	27.5	27.5	92	25.5	0	0	---	0.00	30.026 
02:55	27.5	27.5	27.5	92	25.5	0	0	---	0.00	30.026 
03:00	27.5	27.5	27.5	92	25.5	0	1	22	0.00	30.030 
03:05	27.5	27.5	27.5	92	25.5	0	0	---	0.00	30.030 
03:10	27.6	27.6	27.6	92	25.6	0	0	---	0.00	30.030 
03:15	27.6	27.6	27.6	92	25.6	0	0	---	0.00	30.035 
03:20	27.6	27.6	27.6	92	25.6	0	1	22	0.00	30.035 
03:25	27.6	27.6	27.6	92	25.6	0	1	22	0.00	30.035 
03:30	27.5	27.5	27.5	92	25.5	0	0	---	0.00	30.034 
03:35	27.5	27.5	27.5	92	25.5	0	0	---	0.00	30.034 
03:40	27.5	27.5	27.5	92	25.5	0	0	---	0.00	30.034 
03:45	27.5	27.5	27.5	92	25.5	0	0	---	0.00	30.040 
03:50	27.5	27.5	27.5	92	25.5	0	0	---	0.00	30.040 
03:55	27.5	27.5	27.5	92	25.5	0	0	---	0.00	30.040 
04:00	27.5	27.5	27.5	92	25.5	0	0	---	0.00	30.039 
04:05	27.5	27.5	27.5	92	25.5	0	0	---	0.00	30.039 
04:10	27.5	27.5	27.5	92	25.5	0	0	---	0.00	30.039 
04:15	27.3	27.3	27.3	92	25.3	0	0	---	0.00	30.043 
04:20	27.3	27.3	27.3	92	25.3	0	0	---	0.00	30.043 
04:25	27.3	27.3	27.3	92	25.3	0	0	---	0.00	30.043 
04:30	27.3	27.3	27.3	92	25.3	0	0	---	0.00	30.045 
04:35	27.3	27.3	27.3	92	25.3	0	0	---	0.00	30.045 
04:40	27.3	27.3	27.3	92	25.3	0	0	---	0.00	30.045 
04:45	27.3	27.3	27.3	92	25.3	0	0	---	0.00	30.045 
04:50	27.2	27.2	27.2	92	25.2	0	0	---	0.00	30.045 
04:55	27.2	27.2	27.2	92	25.2	0	0	---	0.00	30.045 
05:00	27.2	27.2	27.2	91	24.9	0	0	---	0.00	30.046 
05:05	27.2	27.2	27.2	91	24.9	0	0	---	0.00	30.046 
05:10	27.2	27.2	27.2	91	24.9	0	0	---	0.00	30.046 
05:15	27.2	27.2	27.2	91	24.9	0	0	---	0.00	30.048 
05:20	27.2	27.2	27.2	91	24.9	0	0	---	0.00	30.048 
05:25	27.0	27.0	27.0	91	24.7	0	0	---	0.00	30.048 
05:30	27.0	27.0	27.0	91	24.7	0	0	---	0.00	30.057 
05:35	27.0	27.0	27.0	91	24.7	0	2	22	0.00	30.057 
05:40	27.0	27.0	27.0	91	24.7	0	0	---	0.00	30.057 
05:45	27.0	27.0	27.0	90	24.5	0	0	---	0.00	30.062 
05:50	27.0	27.0	27.0	90	24.5	0	0	---	0.00	30.062 
05:55	27.0	27.0	27.0	90	24.5	0	1	22	0.00	30.062 
06:00	27.0	27.0	27.0	90	24.5	0	1	22	0.00	30.068 
06:05	27.0	27.0	27.0	90	24.5	0	0	---	0.00	30.068 
06:10	27.0	27.0	27.0	90	24.5	0	0	---	0.00	30.068 
06:15	27.0	27.0	27.0	89	24.2	0	0	---	0.00	30.076 
06:20	27.0	27.0	27.0	89	24.2	0	0	---	0.00	30.076 
06:25	27.2	27.2	27.2	89	24.4	0	1	22	0.00	30.076 
06:30	27.2	27.2	27.2	89	24.4	0	1	22	0.00	30.079 
06:35	27.0	27.0	27.0	89	24.2	0	0	---	0.00	30.079 
06:40	27.0	27.0	27.0	89	24.2	0	0	---	0.00	30.079 
06:45	27.0	27.0	27.0	89	24.2	0	0	---	0.00	30.079 
06:50	27.0	27.0	27.0	89	24.2	0	0	---	0.00	30.079 
06:55	27.0	27.0	27.0	89	24.2	0	0	---	0.00	30.079 
07:00	27.0	27.0	27.0	89	24.2	0	0	---	0.00	30.086 
07:05	27.0	27.0	27.0	90	24.5	0	0	---	0.00	30.086 
07:10	27.0	27.0	27.0	90	24.5	0	0	---	0.00	30.086 
07:15	26.9	26.9	26.9	90	24.4	0	0	---	0.00	30.092 
07:20	27.0	27.0	27.0	90	24.5	0	0	---	0.00	30.092 
07:25	27.0	27.0	27.0	90	24.5	0	0	---	0.00	30.092 
07:30	27.0	27.0	27.0	90	24.5	0	1	22	0.00	30.101 
07:35	27.0	27.0	27.0	90	24.5	0	0	---	0.00	30.101 
07:40	26.9	26.9	26.9	90	24.4	0	0	---	0.00	30.101 
07:45	26.9	26.9	26.9	90	24.4	0	0	---	0.00	30.109 
07:50	26.9	26.9	26.9	90	24.4	0	0	---	0.00	30.109 
07:55	26.7	26.7	26.7	90	24.2	0	0	---	0.00	30.109 
08:00	26.7	26.7	26.7	90	24.2	0	0	---	0.00	30.110 
08:05	26.7	26.7	26.7	90	24.2	0	0	---	0.00	30.110 
08:10	26.7	26.7	26.7	90	24.2	0	0	---	0.00	30.110 
08:15	26.7	26.7	26.7	90	24.2	0	0	---	0.00	30.112 
08:20	26.7	26.7	26.7	90	24.2	0	0	---	0.00	30.112 
08:25	26.7	26.7	26.7	91	24.4	0	0	---	0.00	30.112 
08:30	26.7	26.7	26.7	90	24.2	0	0	---	0.00	30.113 
08:35	26.9	26.9	26.9	91	24.6	0	0	---	0.00	30.113 
08:40	26.9	26.9	26.9	91	24.6	0	0	---	0.00	30.113 
08:45	26.9	26.9	26.9	90	24.4	0	0	---	0.00	30.120 
08:50	26.9	26.9	26.9	90	24.4	0	0	---	0.00	30.120 
08:55	26.7	26.7	26.7	90	24.2	0	0	---	0.00	30.120 
09:00	26.6	26.6	26.6	90	24.1	0	0	---	0.00	30.124 
09:05	26.4	26.4	26.4	90	23.9	0	0	---	0.00	30.124 
09:10	26.1	26.1	26.1	90	23.6	0	0	---	0.00	30.124 
09:15	25.8	25.8	25.8	90	23.3	0	0	---	0.00	30.127 
09:20	25.7	25.7	25.7	90	23.2	0	0	---	0.00	30.127 
09:25	25.6	25.6	25.6	90	23.1	0	0	---	0.00	30.127 
09:30	25.7	25.7	25.7	90	23.2	0	0	---	0.00	30.130 
09:35	25.8	25.8	25.8	90	23.3	0	0	---	0.00	30.130 
09:40	26.1	26.1	26.1	91	23.8	0	0	---	0.00	30.130 
09:45	26.4	26.4	26.4	91	24.1	0	0	---	0.00	30.132 
09:50	26.6	26.6	26.6	91	24.3	0	0	---	0.00	30.132 
09:55	26.9	26.9	26.9	91	24.6	0	0	---	0.00	30.132 
10:00	27.0	27.0	27.0	91	24.7	0	1	22	0.00	30.137 
10:05	27.2	27.2	27.2	90	24.7	0	1	22	0.00	30.137 
10:10	27.2	27.2	27.2	90	24.7	0	1	22	0.00	30.137 
10:15	27.5	27.5	27.5	90	25.0	0	1	22	0.00	30.142 
10:20	27.6	27.6	27.6	89	24.8	0	1	22	0.00	30.142 
10:25	27.9	27.9	27.9	89	25.1	0	0	---	0.00	30.142 
10:30	28.1	28.1	28.1	88	25.0	0	1	22	0.00	30.142 
10:35	28.2	28.2	28.2	88	25.1	0	0	---	0.00	30.142 
10:40	28.4	28.4	28.4	87	25.0	0	0	---	0.00	30.142 
10:45	28.5	28.5	28.5	87	25.1	0	1	22	0.00	30.142 
10:50	28.7	28.7	28.7	86	25.1	0	0	---	0.00	30.142 
10:55	29.0	29.0	29.0	86	25.3	0	0	---	0.00	30.142 
11:00	29.1	29.1	29.1	85	25.2	0	0	---	0.00	30.142 
11:05	29.1	29.1	29.1	84	24.9	0	0	---	0.00	30.142 
11:10	29.3	29.3	29.3	84	25.1	0	0	---	0.00	30.142 
11:15	29.3	29.3	29.3	83	24.8	0	1	22	0.00	30.142 
11:20	29.5	29.5	29.5	83	25.0	0	1	22	0.00	30.142 
11:25	29.7	29.7	29.7	82	24.9	0	1	22	0.00	30.142 
11:30	29.8	29.8	29.8	81	24.7	0	2	22	0.00	30.140 
11:35	30.1	30.1	30.1	81	25.0	0	1	338	0.00	30.140 
11:40	30.4	30.4	30.4	79	24.7	0	1	338	0.00	30.140 
11:45	30.6	30.6	30.6	79	24.9	0	1	338	0.00	30.138 
11:50	31.0	31.0	31.0	78	25.0	0	1	338	0.00	30.138 
11:55	31.5	31.5	31.5	78	25.4	0	1	338	0.00	30.138 
12:00	31.5	31.5	31.5	76	24.8	0	2	338	0.00	30.127 
12:05	31.6	31.6	31.6	76	24.9	0	2	338	0.00	30.127 
12:10	31.8	31.8	31.8	77	25.4	0	1	338	0.00	30.127 
12:15	31.8	31.8	31.8	76	25.1	0	2	338	0.00	30.122 
12:20	31.8	31.8	31.8	75	24.8	0	1	338	0.00	30.122 
12:25	31.8	31.8	31.8	75	24.8	0	1	338	0.00	30.122 
12:30	31.9	31.9	31.9	75	24.9	0	1	338	0.00	30.120 
12:35	32.1	32.1	32.1	75	25.1	0	1	338	0.00	30.120 
12:40	32.1	32.1	32.1	74	24.8	0	1	338	0.00	30.120 
12:45	32.2	32.2	32.2	74	24.9	0	2	338	0.00	30.117 
12:50	32.2	32.2	32.2	74	24.9	0	2	315	0.00	30.117 
12:55	32.4	32.4	32.4	74	25.1	0	1	315	0.00	30.117 
13:00	32.2	32.2	32.2	73	24.5	0	1	315	0.00	30.112 
13:05	32.1	32.1	32.1	74	24.8	0	1	315	0.01	30.112 
13:10	32.1	32.1	32.1	74	24.8	0	1	315	0.00	30.112 
13:15	32.1	32.1	32.1	74	24.8	0	0	---	0.00	30.108 
13:20	32.4	32.4	32.4	74	25.1	0	1	315	0.00	30.108 
13:25	32.5	32.5	32.5	74	25.2	0	1	315	0.00	30.108 
13:30	32.7	32.7	32.7	74	25.3	0	0	---	0.00	30.104 
13:35	32.9	32.9	32.9	73	25.2	0	1	315	0.00	30.104 
13:40	33.4	33.4	33.4	73	25.7	0	1	315	0.00	30.104 
13:45	33.2	33.2	33.2	72	25.2	0	1	315	0.00	30.097 
13:50	33.4	33.4	33.4	73	25.7	0	0	---	0.01	30.097 
13:55	33.7	33.7	33.7	74	26.3	0	1	315	0.00	30.097 
14:00	33.7	33.7	33.7	72	25.7	1	3	315	0.00	30.095 
14:05	33.8	33.8	33.8	73	26.1	0	0	---	0.00	30.095 
14:10	34.0	34.0	34.0	73	26.3	0	2	338	0.01	30.095 
14:15	34.0	34.0	34.0	73	26.3	0	2	292	0.00	30.090 
14:20	33.8	33.8	33.8	73	26.1	0	2	292	0.00	30.090 
14:25	33.8	33.8	33.8	75	26.7	0	1	292	0.00	30.090 
14:30	33.7	33.7	33.7	75	26.6	0	1	292	0.00	30.089 
14:35	33.7	33.7	33.7	77	27.3	0	1	292	0.00	30.089 
14:40	33.7	33.7	33.7	78	27.6	0	2	292	0.00	30.089 
14:45	33.5	33.5	33.5	79	27.7	0	3	292	0.01	30.090 
14:50	33.2	33.2	33.2	79	27.4	1	4	248	0.00	30.090 
14:55	33.1	33.1	33.1	79	27.3	0	2	248	0.00	30.090 
15:00	33.1	33.1	33.1	80	27.6	0	2	248	0.00	30.096 
15:05	32.8	32.8	32.8	80	27.3	0	2	248	0.00	30.096 
15:10	32.7	32.7	32.7	81	27.5	1	2	248	0.00	30.096 
15:15	32.5	32.5	32.5	82	27.6	0	3	248	0.00	30.097 
15:20	32.5	32.5	32.5	82	27.6	1	3	248	0.00	30.097 
15:25	32.4	32.4	32.4	83	27.8	0	2	248	0.00	30.097 
15:30	32.2	32.2	32.2	84	27.9	1	3	248	0.00	30.102 
15:35	32.2	32.2	32.2	84	27.9	0	2	248	0.01	30.102 
15:40	32.2	32.2	32.2	84	27.9	0	2	248	0.00	30.102 
15:45	32.2	32.2	32.2	85	28.2	0	2	248	0.00	30.104 
15:50	32.2	32.2	32.2	85	28.2	0	1	248	0.00	30.104 
15:55	32.1	32.1	32.1	86	28.4	0	1	248	0.00	30.104 
16:00	32.1	32.1	32.1	86	28.4	0	1	248	0.00	30.102 
16:05	31.9	31.9	31.9	86	28.2	0	1	248	0.00	30.102 
16:10	31.9	31.9	31.9	86	28.2	0	2	248	0.00	30.102 
16:15	31.9	31.9	31.9	87	28.5	0	1	248	0.00	30.107 
16:20	31.9	31.9	31.9	87	28.5	0	0	---	0.00	30.107 
16:25	31.8	31.8	31.8	87	28.4	0	2	248	0.00	30.107 
16:30	31.8	31.8	31.8	88	28.7	0	2	248	0.00	30.108 
16:35	31.8	31.8	31.8	88	28.7	0	3	248	0.00	30.108 
16:40	31.5	31.5	31.5	88	28.4	1	4	248	0.00	30.108 
16:45	31.3	31.3	31.3	88	28.2	0	2	248	0.00	30.108 
16:50	31.2	31.2	31.2	88	28.1	1	4	248	0.00	30.108 
16:55	31.0	31.0	31.0	88	27.9	1	4	248	0.00	30.108 
17:00	30.9	30.9	30.9	88	27.8	1	4	248	0.00	30.109 
17:05	30.7	30.7	30.7	88	27.6	1	3	248	0.00	30.109 
17:10	30.6	30.6	30.6	89	27.8	1	3	248	0.00	30.109 
17:15	30.6	30.6	30.6	89	27.8	1	3	270	0.00	30.112 
17:20	30.6	30.6	30.6	89	27.8	1	3	270	0.00	30.112 
17:25	30.6	30.6	30.6	90	28.0	1	3	248	0.00	30.112 
17:30	30.6	30.6	30.6	90	28.0	1	3	248	0.00	30.112 
17:35	30.6	30.6	30.6	90	28.0	1	4	248	0.00	30.112 
17:40	30.6	30.6	30.6	90	28.0	1	4	248	0.00	30.112 
17:45	30.4	30.4	30.4	90	27.8	1	3	248	0.00	30.117 
17:50	30.4	30.4	30.4	90	27.8	1	3	248	0.00	30.117 
17:55	30.4	30.4	30.4	89	27.6	1	3	248	0.00	30.117 
18:00	30.4	30.4	30.4	89	27.6	1	4	248	0.00	30.119 
18:05	30.4	30.4	30.4	89	27.6	1	4	248	0.00	30.119 
18:10	30.4	30.4	30.4	89	27.6	1	2	248	0.00	30.119 
18:15	30.3	30.3	30.3	88	27.2	1	3	248	0.00	30.125 
18:20	30.3	30.3	30.3	88	27.2	1	4	248	0.00	30.125 
18:25	30.3	30.3	30.3	88	27.2	0	2	248	0.00	30.125 
18:30	30.3	30.3	30.3	88	27.2	0	2	248	0.00	30.125 
18:35	30.3	30.3	30.3	87	26.9	1	5	248	0.00	30.125 
18:40	30.3	30.3	30.3	87	26.9	1	2	248	0.00	30.125 
18:45	30.3	30.3	30.3	87	26.9	1	4	248	0.00	30.125 
18:50	30.3	30.3	30.3	87	26.9	1	3	248	0.00	30.125 
18:55	30.3	30.3	30.3	87	26.9	1	3	248	0.00	30.125 
19:00	30.1	30.1	30.1	87	26.7	1	3	248	0.00	30.125 
19:05	30.1	30.1	30.1	87	26.7	1	4	248	0.00	30.125 
19:10	30.0	30.0	30.0	87	26.6	1	5	248	0.00	30.125 
19:15	30.0	30.0	30.0	87	26.6	1	6	248	0.00	30.126 
19:20	30.0	30.0	30.0	86	26.3	2	6	248	0.00	30.126 
19:25	29.8	29.8	29.8	86	26.1	1	5	202	0.00	30.126 
19:30	29.8	29.8	29.8	86	26.1	1	3	248	0.00	30.127 
19:35	29.7	29.7	29.7	86	26.0	1	3	248	0.00	30.127 
19:40	29.7	29.7	29.7	86	26.0	0	3	248	0.00	30.127 
19:45	29.5	29.5	29.5	86	25.8	1	4	248	0.00	30.126 
19:50	29.5	29.5	29.5	86	25.8	0	3	248	0.00	30.126 
19:55	29.5	29.5	29.5	86	25.8	1	3	248	0.00	30.126 
20:00	29.4	29.4	29.4	86	25.7	0	2	248	0.00	30.126 
20:05	29.4	29.4	29.4	86	25.7	1	3	248	0.00	30.126 
20:10	29.4	29.4	29.4	86	25.7	0	1	248	0.00	30.126 
20:15	29.3	29.3	29.3	86	25.6	1	3	248	0.00	30.125 
20:20	29.3	29.3	29.3	85	25.4	0	2	248	0.00	30.125 
20:25	29.1	29.1	29.1	85	25.2	1	3	248	0.00	30.125 
20:30	29.1	29.1	29.1	85	25.2	1	3	248	0.00	30.122 
20:35	29.1	29.1	29.1	85	25.2	0	2	248	0.00	30.122 
20:40	29.1	29.1	29.1	86	25.4	1	4	270	0.00	30.122 
20:45	29.1	29.1	29.1	86	25.4	0	3	270	0.00	30.124 
20:50	29.1	29.1	29.1	85	25.2	0	2	270	0.00	30.124 
20:55	29.1	29.1	29.1	86	25.4	1	3	270	0.00	30.124 
21:00	29.1	29.1	29.1	85	25.2	0	3	270	0.00	30.126 
21:05	29.1	29.1	29.1	86	25.4	0	2	270	0.00	30.126 
21:10	29.1	29.1	29.1	85	25.2	0	2	270	0.00	30.126 
21:15	29.1	29.1	29.1	85	25.2	0	2	248	0.00	30.127 
21:20	29.1	29.1	29.1	85	25.2	0	3	248	0.00	30.127 
21:25	29.1	29.1	29.1	85	25.2	0	3	248	0.00	30.127 
21:30	29.3	29.3	29.3	85	25.4	0	3	248	0.00	30.127 
21:35	29.3	29.3	29.3	85	25.4	0	2	248	0.00	30.127 
21:40	29.1	29.1	29.1	85	25.2	0	2	248	0.00	30.127 
21:45	29.1	29.1	29.1	85	25.2	0	2	248	0.00	30.127 
21:50	29.1	29.1	29.1	85	25.2	0	2	248	0.00	30.127 
21:55	29.1	29.1	29.1	85	25.2	0	1	248	0.00	30.127 
22:00	29.1	29.1	29.1	85	25.2	0	1	248	0.00	30.126 
22:05	29.1	29.1	29.1	85	25.2	0	1	248	0.00	30.126 
22:10	29.1	29.1	29.1	85	25.2	0	2	248	0.00	30.126 
22:15	29.1	29.1	29.1	85	25.2	0	1	248	0.00	30.124 
22:20	29.1	29.1	29.1	86	25.4	0	2	248	0.00	30.124 
22:25	29.1	29.1	29.1	86	25.4	0	2	248	0.00	30.124 
22:30	29.1	29.1	29.1	86	25.4	0	2	248	0.00	30.123 
22:35	29.1	29.1	29.1	86	25.4	0	1	248	0.00	30.123 
22:40	29.1	29.1	29.1	86	25.4	0	1	248	0.00	30.123 
22:45	29.0	29.0	29.0	86	25.3	0	0	---	0.00	30.124 
22:50	29.0	29.0	29.0	86	25.3	0	2	248	0.00	30.124 
22:55	29.0	29.0	29.0	86	25.3	0	2	248	0.00	30.124 
23:00	29.0	29.0	29.0	87	25.6	0	3	248	0.00	30.124 
23:05	29.0	29.0	29.0	87	25.6	0	2	248	0.00	30.124 
23:10	29.0	29.0	29.0	87	25.6	0	2	248	0.00	30.124 
23:15	29.0	29.0	29.0	87	25.6	0	1	248	0.00	30.123 
23:20	29.0	29.0	29.0	87	25.6	0	1	248	0.00	30.123 
23:25	29.0	29.0	29.0	87	25.6	0	2	248	0.00	30.123 
23:30	29.0	29.0	29.0	87	25.6	0	3	248	0.00	30.122 
23:35	29.0	29.0	29.0	88	25.9	0	1	248	0.00	30.122 
23:40	29.0	29.0	29.0	88	25.9	0	1	248	0.00	30.122 
23:45	29.0	29.0	29.0	88	25.9	0	1	248	0.00	30.122 
23:50	29.0	29.0	29.0	88	25.9	0	1	248	0.00	30.122 
23:55	28.8	28.8	28.8	88	25.7	0	1	248	0.00	30.122 

CoCoRaHS
IN-AL-39
A2 Web Hosting
Creative Commons License
GoDaddy
search engine by freefind advanced

loaded 2018-11-19 18:59:45 • last modified 2010-11-18 10:43:29
Privacy PolicyDisclaimer
• wx.awcolley.com is powered by PmWiki v.2002016 •
• all content (unless otherwise noted) © 2018 A W Colley